createdAt,value
2023-04-20T00:02:45.399Z,2.72
2023-04-20T00:05:14.529Z,4.57
2023-04-20T00:07:42.862Z,3.60
2023-04-20T00:10:11.156Z,3.67
2023-04-20T00:12:38.627Z,2.97
2023-04-20T00:15:07.283Z,3.63
2023-04-20T00:17:34.966Z,3.47
2023-04-20T00:20:03.361Z,5.22
2023-04-20T00:22:32.156Z,3.63
2023-04-20T00:24:59.623Z,4.70
2023-04-20T00:27:27.126Z,5.70
2023-04-20T00:29:54.543Z,6.63
2023-04-20T00:32:22.008Z,5.88
2023-04-20T00:34:49.447Z,3.60
2023-04-20T00:37:16.882Z,3.65
2023-04-20T00:39:45.652Z,3.65
2023-04-20T00:42:13.096Z,4.80
2023-04-20T00:44:40.667Z,7.13
2023-04-20T00:47:08.149Z,3.60
2023-04-20T00:49:35.734Z,4.35
2023-04-20T00:52:03.216Z,3.47
2023-04-20T00:54:31.537Z,5.90
2023-04-20T00:57:01.224Z,5.00
2023-04-20T00:59:29.228Z,4.63
2023-04-20T01:01:56.780Z,3.75
2023-04-20T01:04:24.691Z,5.88
2023-04-20T01:06:52.268Z,3.80
2023-04-20T01:09:19.904Z,6.38
2023-04-20T01:11:47.482Z,4.95
2023-04-20T01:14:16.289Z,4.75
2023-04-20T01:16:44.786Z,3.35
2023-04-20T01:19:12.230Z,5.20
2023-04-20T01:21:39.752Z,4.35
2023-04-20T01:24:09.266Z,3.63
2023-04-20T01:26:36.702Z,4.28
2023-04-20T01:29:04.168Z,4.20
2023-04-20T01:31:31.878Z,3.40
2023-04-20T01:33:59.585Z,3.70
2023-04-20T01:36:27.045Z,3.35
2023-04-20T01:38:54.508Z,3.78
2023-04-20T01:41:23.321Z,5.15
2023-04-20T01:43:50.874Z,3.60
2023-04-20T01:46:18.376Z,4.97
2023-04-20T01:48:46.038Z,5.45
2023-04-20T01:51:13.462Z,3.75
2023-04-20T01:53:40.934Z,4.28
2023-04-20T01:56:08.626Z,3.58
2023-04-20T01:58:37.508Z,4.10
2023-04-20T02:03:33.152Z,4.00
2023-04-20T02:06:00.748Z,3.72
2023-04-20T02:08:28.192Z,7.80
2023-04-20T02:10:55.628Z,5.25
2023-04-20T02:13:23.130Z,2.22
2023-04-20T02:15:52.142Z,2.70
2023-04-20T02:18:19.603Z,4.00
2023-04-20T02:20:47.317Z,2.90
2023-04-20T02:23:15.493Z,5.78
2023-04-20T02:25:42.996Z,4.15
2023-04-20T02:28:10.758Z,5.38
2023-04-20T02:30:38.205Z,3.33
2023-04-20T02:33:07.448Z,3.97
2023-04-20T02:35:34.901Z,4.15
2023-04-20T02:38:02.546Z,3.60
2023-04-20T02:40:30.028Z,4.13
2023-04-20T02:42:57.546Z,3.13
2023-04-20T02:45:24.984Z,4.38
2023-04-20T02:47:52.508Z,5.75
2023-04-20T02:50:21.549Z,3.65
2023-04-20T02:55:16.592Z,2.67
2023-04-20T02:57:44.034Z,6.15
2023-04-20T03:00:13.566Z,5.03
2023-04-20T03:02:41.190Z,6.03
2023-04-20T03:05:09.496Z,6.00
2023-04-20T03:07:38.264Z,5.25
2023-04-20T03:10:06.870Z,4.43
2023-04-20T03:12:34.328Z,4.90
2023-04-20T03:15:01.813Z,3.65
2023-04-20T03:17:29.312Z,4.30
2023-04-20T03:19:57.396Z,4.28
2023-04-20T03:22:24.853Z,5.40
2023-04-20T03:24:53.953Z,3.55
2023-04-20T03:27:21.643Z,4.30
2023-04-20T03:29:49.067Z,4.78
2023-04-20T03:32:16.490Z,5.53
2023-04-20T03:34:44.023Z,5.00
2023-04-20T03:37:11.466Z,6.07
2023-04-20T03:39:38.969Z,5.82
2023-04-20T03:42:07.737Z,5.85
2023-04-20T03:44:35.235Z,4.32
2023-04-20T03:47:02.754Z,6.15
2023-04-20T03:49:30.698Z,4.70
2023-04-20T03:51:58.145Z,4.35
2023-04-20T03:54:25.577Z,3.28
2023-04-20T03:56:53.007Z,4.90
2023-04-20T03:59:21.823Z,3.22
2023-04-20T04:01:49.271Z,3.25
2023-04-20T04:04:16.892Z,7.10
2023-04-20T04:06:44.483Z,6.05
2023-04-20T04:09:11.925Z,5.05
2023-04-20T04:11:39.401Z,6.85
2023-04-20T04:14:06.831Z,4.18
2023-04-20T04:16:35.730Z,5.45
2023-04-20T04:21:30.696Z,3.60
2023-04-20T04:23:58.682Z,2.70
2023-04-20T04:26:26.635Z,3.90
2023-04-20T04:28:54.106Z,3.95
2023-04-20T04:31:21.742Z,6.72
2023-04-20T04:33:51.199Z,6.82
2023-04-20T04:36:18.627Z,3.17
2023-04-20T04:38:46.168Z,5.13
2023-04-20T04:41:13.659Z,6.50
2023-04-20T04:43:41.870Z,7.40
2023-04-20T04:46:10.791Z,4.63
2023-04-20T04:51:09.799Z,4.15
2023-04-20T04:53:37.928Z,4.97
2023-04-20T04:56:06.737Z,3.92
2023-04-20T04:58:34.261Z,2.15
2023-04-20T05:01:01.725Z,2.70
2023-04-20T05:03:29.317Z,6.43
2023-04-20T05:05:56.974Z,7.15
2023-04-20T05:08:25.921Z,5.10
2023-04-20T05:10:53.410Z,12.50
2023-04-20T05:13:21.064Z,6.18
2023-04-20T05:15:48.515Z,4.03
2023-04-20T05:18:16.079Z,4.55
2023-04-20T05:20:43.670Z,6.15
2023-04-20T05:23:11.466Z,4.25
2023-04-20T05:25:40.359Z,5.60
2023-04-20T05:28:07.802Z,4.30
2023-04-20T05:30:35.323Z,6.45
2023-04-20T05:33:02.846Z,5.60
2023-04-20T05:35:30.700Z,6.15
2023-04-20T05:38:00.256Z,9.05
2023-04-20T05:40:27.779Z,7.63
2023-04-20T05:42:56.843Z,3.80
2023-04-20T05:45:24.535Z,4.25
2023-04-20T05:47:55.685Z,7.43
2023-04-20T05:50:23.700Z,4.80
2023-04-20T05:52:51.714Z,9.00
2023-04-20T05:55:22.233Z,10.20
2023-04-20T05:57:51.971Z,8.57
2023-04-20T06:00:24.473Z,8.68
2023-04-20T06:03:02.778Z,11.27
2023-04-20T06:05:30.527Z,5.15
2023-04-20T06:07:58.085Z,8.73
2023-04-20T06:10:25.581Z,7.85
2023-04-20T06:12:53.164Z,5.72
2023-04-20T06:15:22.195Z,8.68
2023-04-20T06:17:49.678Z,8.80
2023-04-20T06:20:17.390Z,4.25
2023-04-20T06:22:45.666Z,9.13
2023-04-20T06:25:14.787Z,6.00
2023-04-20T06:27:42.673Z,8.30
2023-04-20T06:30:10.897Z,9.52
2023-04-20T06:32:39.781Z,4.38
2023-04-20T06:35:08.464Z,5.88
2023-04-20T06:37:36.810Z,8.55
2023-04-20T06:40:07.797Z,3.83
2023-04-20T06:42:35.397Z,4.65
2023-04-20T06:45:03.166Z,6.70
2023-04-20T06:47:33.429Z,9.38
2023-04-20T06:50:04.053Z,7.22
2023-04-20T06:52:31.959Z,3.25
2023-04-20T06:55:02.894Z,9.90
2023-04-20T06:57:30.604Z,9.48
2023-04-20T06:59:58.869Z,4.25
2023-04-20T07:02:26.758Z,6.97
2023-04-20T07:04:54.681Z,5.15
2023-04-20T07:07:30.905Z,8.20
2023-04-20T07:09:58.520Z,6.30
2023-04-20T07:12:26.480Z,8.07
2023-04-20T07:14:54.724Z,6.43
2023-04-20T07:17:29.590Z,8.45
2023-04-20T07:19:58.158Z,9.43
2023-04-20T07:22:27.046Z,8.32
2023-04-20T07:24:55.009Z,4.47
2023-04-20T07:27:22.615Z,7.38
2023-04-20T07:29:50.126Z,12.00
2023-04-20T07:32:17.746Z,6.88
2023-04-20T07:34:45.463Z,3.80
2023-04-20T07:37:13.552Z,9.98
2023-04-20T07:39:42.479Z,9.50
2023-04-20T07:47:05.837Z,0.93
2023-04-20T07:49:37.527Z,11.57
2023-04-20T07:52:15.863Z,8.88
2023-04-20T07:54:46.154Z,8.43
2023-04-20T07:57:15.240Z,8.05
2023-04-20T07:59:43.286Z,7.47
2023-04-20T08:02:11.057Z,3.10
2023-04-20T08:04:39.252Z,6.32
2023-04-20T08:07:06.971Z,7.50
2023-04-20T08:09:34.483Z,8.48
2023-04-20T08:12:03.372Z,9.13
2023-04-20T08:17:00.365Z,8.25
2023-04-20T08:19:28.186Z,7.00
2023-04-20T08:21:56.370Z,4.38
2023-04-20T08:24:23.957Z,5.30
2023-04-20T08:26:51.557Z,3.80
2023-04-20T08:29:20.766Z,5.40
2023-04-20T08:31:50.644Z,4.63
2023-04-20T08:34:19.033Z,7.15
2023-04-20T08:36:46.716Z,6.95
2023-04-20T08:39:15.867Z,6.50
2023-04-20T08:41:43.397Z,7.30
2023-04-20T08:44:10.937Z,3.92
2023-04-20T08:46:41.939Z,6.18
2023-04-20T08:49:12.885Z,8.85
2023-04-20T08:51:40.776Z,5.50
2023-04-20T08:54:08.670Z,3.67
2023-04-20T08:56:37.730Z,4.43
2023-04-20T08:59:07.020Z,5.03
2023-04-20T09:01:36.326Z,6.25
2023-04-20T09:04:16.804Z,6.53
2023-04-20T09:06:50.001Z,8.60
2023-04-20T09:09:18.363Z,5.82
2023-04-20T09:11:48.377Z,7.22
2023-04-20T09:14:18.321Z,4.82
2023-04-20T09:16:53.440Z,7.70
2023-04-20T09:19:26.102Z,2.67
2023-04-20T09:21:55.883Z,4.38
2023-04-20T09:24:31.262Z,3.15
2023-04-20T09:26:58.775Z,3.33
2023-04-20T09:29:26.473Z,8.32
2023-04-20T09:31:57.384Z,7.85
2023-04-20T09:34:26.701Z,4.10
2023-04-20T09:36:55.813Z,6.95
2023-04-20T09:39:24.867Z,6.88
2023-04-20T09:41:53.579Z,6.28
2023-04-20T09:44:21.220Z,6.82
2023-04-20T09:46:48.645Z,7.30
2023-04-20T09:49:17.966Z,5.53
2023-04-20T09:51:46.864Z,8.75
2023-04-20T09:54:16.339Z,6.70
2023-04-20T09:56:46.425Z,6.90
2023-04-20T09:59:14.800Z,4.63
2023-04-20T10:01:42.419Z,7.60
2023-04-20T10:04:12.076Z,3.40
2023-04-20T10:06:39.952Z,7.97
2023-04-20T10:09:09.514Z,3.58
2023-04-20T10:11:52.529Z,5.10
2023-04-20T10:14:23.951Z,3.85
2023-04-20T10:17:01.675Z,7.72
2023-04-20T10:19:41.192Z,5.07
2023-04-20T10:22:09.388Z,6.78
2023-04-20T10:24:39.034Z,7.53
2023-04-20T10:27:17.562Z,4.35
2023-04-20T10:29:45.241Z,6.38
2023-04-20T10:32:22.977Z,5.15
2023-04-20T10:35:02.152Z,4.72
2023-04-20T10:37:29.768Z,6.25
2023-04-20T10:39:59.197Z,5.88
2023-04-20T10:42:27.264Z,8.50
2023-04-20T10:44:55.323Z,7.07
2023-04-20T10:47:28.849Z,2.75
2023-04-20T10:50:06.445Z,6.78
2023-04-20T10:52:35.883Z,7.18
2023-04-20T10:55:06.789Z,7.95
2023-04-20T10:57:34.719Z,4.97
2023-04-20T11:00:16.352Z,6.75
2023-04-20T11:02:48.273Z,2.95
2023-04-20T11:05:16.569Z,4.70
2023-04-20T11:07:49.212Z,5.18
2023-04-20T11:10:18.284Z,8.98
2023-04-20T11:12:45.922Z,5.72
2023-04-20T11:15:13.804Z,6.28
2023-04-20T11:17:41.432Z,6.43
2023-04-20T11:20:10.919Z,7.63
2023-04-20T11:22:41.614Z,4.65
2023-04-20T11:25:11.776Z,2.83
2023-04-20T11:27:41.280Z,3.92
2023-04-20T11:30:11.935Z,6.88
2023-04-20T11:32:39.700Z,4.93
2023-04-20T11:35:12.263Z,4.28
2023-04-20T11:37:47.753Z,6.78
2023-04-20T11:40:15.324Z,8.63
2023-04-20T11:42:44.207Z,7.15
2023-04-20T11:45:12.697Z,4.95
2023-04-20T11:47:41.289Z,6.10
2023-04-20T11:50:10.163Z,3.53
2023-04-20T11:52:37.743Z,8.15
2023-04-20T11:55:06.195Z,5.55
2023-04-20T11:57:34.529Z,5.38
2023-04-20T12:00:04.237Z,7.32
2023-04-20T12:02:31.880Z,8.02
2023-04-20T12:05:01.960Z,6.20
2023-04-20T12:07:29.595Z,5.35
2023-04-20T12:09:57.079Z,4.00
2023-04-20T12:12:26.360Z,6.47
2023-04-20T12:14:53.872Z,5.57
2023-04-20T12:17:22.811Z,3.78
2023-04-20T12:19:50.488Z,3.42
2023-04-20T12:22:17.990Z,4.07
2023-04-20T12:24:45.624Z,4.32
2023-04-20T12:27:13.090Z,3.10
2023-04-20T12:29:40.871Z,6.65
2023-04-20T12:32:08.345Z,5.00
2023-04-20T12:34:37.176Z,4.35
2023-04-20T12:37:04.634Z,4.35
2023-04-20T12:39:32.171Z,4.50
2023-04-20T12:42:00.128Z,4.82
2023-04-20T12:44:27.564Z,6.13
2023-04-20T12:46:55.039Z,4.18
2023-04-20T12:49:22.607Z,4.22
2023-04-20T12:51:51.428Z,5.68
2023-04-20T12:54:19.105Z,6.63
2023-04-20T12:56:46.787Z,2.97
2023-04-20T12:59:14.555Z,3.67
2023-04-20T13:01:42.055Z,6.10
2023-04-20T13:04:09.570Z,3.90
2023-04-20T13:06:37.261Z,5.25
2023-04-20T13:09:07.013Z,5.38
2023-04-20T13:11:34.473Z,4.18
2023-04-20T13:14:01.941Z,14.77
2023-04-20T13:16:29.777Z,6.55
2023-04-20T13:18:57.457Z,8.45
2023-04-20T13:21:25.087Z,6.85
2023-04-20T13:23:54.043Z,7.45
2023-04-20T13:26:23.674Z,5.60
2023-04-20T13:28:51.128Z,5.38
2023-04-20T13:31:18.739Z,4.55
2023-04-20T13:33:46.237Z,5.38
2023-04-20T13:36:13.709Z,8.02
2023-04-20T13:38:41.162Z,2.50
2023-04-20T13:41:08.673Z,7.05
2023-04-20T13:43:37.476Z,8.55
2023-04-20T13:48:32.372Z,4.68
2023-04-20T13:51:00.187Z,3.42
2023-04-20T13:53:27.631Z,1.63
2023-04-20T13:55:55.250Z,7.57
2023-04-20T13:58:22.695Z,6.10
2023-04-20T14:00:51.584Z,6.75
2023-04-20T14:03:20.265Z,5.05
2023-04-20T14:05:49.802Z,5.47
2023-04-20T14:08:19.668Z,5.93
2023-04-20T14:10:49.434Z,4.60
2023-04-20T14:13:16.972Z,8.63
2023-04-20T14:15:44.506Z,5.95
2023-04-20T14:18:13.611Z,5.35
2023-04-20T14:20:41.130Z,6.50
2023-04-20T14:23:09.639Z,4.53
2023-04-20T14:25:37.271Z,7.03
2023-04-20T14:28:05.187Z,4.40
2023-04-20T14:30:32.772Z,6.35
2023-04-20T14:33:01.757Z,6.85
2023-04-20T14:35:30.896Z,6.90
2023-04-20T14:37:58.364Z,7.53
2023-04-20T14:40:25.848Z,6.18
2023-04-20T14:42:53.394Z,5.38
2023-04-20T14:45:21.964Z,6.90
2023-04-20T14:47:53.574Z,4.60
2023-04-20T14:50:21.269Z,9.25
2023-04-20T14:52:50.081Z,8.30
2023-04-20T14:55:17.586Z,8.98
2023-04-20T14:57:45.256Z,7.78
2023-04-20T15:00:13.361Z,10.45
2023-04-20T15:02:40.910Z,8.65
2023-04-20T15:05:10.763Z,5.75
2023-04-20T15:07:38.947Z,6.90
2023-04-20T15:10:11.252Z,8.60
2023-04-20T15:12:38.736Z,5.72
2023-04-20T15:15:08.185Z,7.25
2023-04-20T15:17:36.339Z,7.82
2023-04-20T15:20:04.231Z,8.27
2023-04-20T15:22:31.902Z,8.43
2023-04-20T15:24:59.397Z,9.00
2023-04-20T15:27:28.680Z,6.10
2023-04-20T15:29:57.885Z,15.50
2023-04-20T15:32:25.520Z,10.23
2023-04-20T15:34:53.333Z,8.23
2023-04-20T15:37:20.783Z,8.45
2023-04-20T15:39:48.299Z,12.05
2023-04-20T15:42:18.801Z,6.60
2023-04-20T15:44:47.669Z,7.72
2023-04-20T15:47:15.315Z,8.63
2023-04-20T15:49:43.303Z,13.23
2023-04-20T15:52:10.996Z,7.20
2023-04-20T15:54:38.912Z,7.18
2023-04-20T15:57:06.489Z,10.95
2023-04-20T15:59:34.075Z,9.27
2023-04-20T16:02:03.023Z,5.03
2023-04-20T16:04:30.576Z,6.57
2023-04-20T16:06:58.188Z,6.30
2023-04-20T16:09:25.728Z,7.18
2023-04-20T16:11:54.823Z,7.75
2023-04-20T16:14:22.349Z,9.70
2023-04-20T16:16:49.798Z,9.80
2023-04-20T16:19:18.708Z,7.82
2023-04-20T16:21:46.413Z,8.70
2023-04-20T16:24:14.158Z,9.85
2023-04-20T16:26:41.620Z,9.30
2023-04-20T16:29:09.840Z,10.88
2023-04-20T16:31:37.691Z,10.75
2023-04-20T16:34:07.671Z,8.02
2023-04-20T16:36:36.793Z,10.30
2023-04-20T16:39:06.604Z,8.75
2023-04-20T16:41:34.025Z,10.50
2023-04-20T16:44:01.484Z,10.52
2023-04-20T16:46:28.976Z,7.45
2023-04-20T16:48:56.462Z,9.98
2023-04-20T16:51:27.101Z,9.65
2023-04-20T16:53:56.475Z,9.10
2023-04-20T16:56:24.080Z,13.27
2023-04-20T16:58:51.586Z,12.60
2023-04-20T17:01:19.138Z,11.60
2023-04-20T17:03:47.632Z,11.30
2023-04-20T17:06:15.345Z,8.38
2023-04-20T17:08:42.855Z,9.52
2023-04-20T17:11:11.808Z,10.98
2023-04-20T17:13:39.502Z,7.85
2023-04-20T17:16:07.410Z,12.85
2023-04-20T17:18:35.064Z,11.30
2023-04-20T17:21:03.125Z,11.10
2023-04-20T17:23:30.889Z,10.55
2023-04-20T17:25:58.605Z,11.05
2023-04-20T17:28:27.378Z,10.80
2023-04-20T17:33:22.131Z,10.93
2023-04-20T17:35:49.569Z,12.18
2023-04-20T17:38:17.152Z,8.40
2023-04-20T17:40:44.709Z,7.85
2023-04-20T17:43:12.168Z,10.30
2023-04-20T17:45:40.998Z,10.38
2023-04-20T17:48:08.989Z,9.48
2023-04-20T17:50:36.748Z,9.18
2023-04-20T17:53:06.912Z,6.82
2023-04-20T17:55:34.899Z,7.53
2023-04-20T17:58:02.635Z,10.50
2023-04-20T18:00:30.203Z,8.43
2023-04-20T18:02:59.551Z,9.23
2023-04-20T18:05:27.332Z,9.35
2023-04-20T18:07:54.812Z,8.20
2023-04-20T18:10:22.581Z,10.30
2023-04-20T18:12:50.206Z,11.80
2023-04-20T18:15:17.714Z,10.43
2023-04-20T18:17:45.324Z,9.35
2023-04-20T18:20:14.228Z,11.43
2023-04-20T18:22:41.799Z,11.20
2023-04-20T18:25:10.228Z,12.10
2023-04-20T18:27:37.986Z,11.32
2023-04-20T18:30:06.907Z,8.10
2023-04-20T18:32:36.129Z,11.00
2023-04-20T18:35:03.868Z,12.18
2023-04-20T18:37:32.749Z,14.18
2023-04-20T18:40:00.675Z,11.85
2023-04-20T18:42:28.238Z,13.68
2023-04-20T18:44:56.121Z,11.85
2023-04-20T18:47:24.456Z,15.10
2023-04-20T18:49:53.058Z,14.60
2023-04-20T18:52:20.842Z,10.70
2023-04-20T18:54:49.640Z,9.20
2023-04-20T18:57:17.849Z,12.13
2023-04-20T18:59:45.343Z,13.85
2023-04-20T19:02:13.462Z,12.15
2023-04-20T19:04:41.009Z,11.70
2023-04-20T19:07:08.445Z,13.10
2023-04-20T19:09:35.889Z,13.80
2023-04-20T19:12:05.290Z,11.75
2023-04-20T19:14:32.742Z,12.85
2023-04-20T19:17:01.892Z,13.88
2023-04-20T19:19:29.415Z,14.23
2023-04-20T19:21:57.692Z,15.57
2023-04-20T19:24:25.175Z,13.75
2023-04-20T19:26:52.651Z,16.55
2023-04-20T19:29:21.622Z,15.07
2023-04-20T19:31:49.078Z,13.27
2023-04-20T19:34:16.768Z,15.00
2023-04-20T19:36:44.468Z,13.20
2023-04-20T19:39:11.941Z,14.15
2023-04-20T19:41:41.620Z,12.65
2023-04-20T19:44:10.409Z,17.50
2023-04-20T19:46:40.785Z,15.90
2023-04-20T19:49:08.368Z,14.10
2023-04-20T19:51:35.849Z,13.77
2023-04-20T19:54:04.684Z,15.43
2023-04-20T19:56:32.305Z,12.95
2023-04-20T19:59:00.024Z,14.27
2023-04-20T20:01:27.505Z,13.70
2023-04-20T20:03:56.544Z,14.82
2023-04-20T20:06:24.193Z,14.13
2023-04-20T20:08:51.737Z,14.23
2023-04-20T20:11:19.225Z,13.70
2023-04-20T20:13:46.709Z,16.33
2023-04-20T20:16:14.182Z,14.57
2023-04-20T20:18:42.012Z,15.02
2023-04-20T20:21:10.796Z,13.35
2023-04-20T20:23:38.285Z,15.10
2023-04-20T20:26:05.786Z,15.88
2023-04-20T20:28:33.230Z,18.05
2023-04-20T20:31:00.741Z,13.05
2023-04-20T20:33:28.226Z,15.23
2023-04-20T20:35:55.728Z,13.77
2023-04-20T20:38:24.601Z,27.80
2023-04-20T20:40:53.247Z,18.92
2023-04-20T20:43:21.508Z,16.55
2023-04-20T20:45:48.956Z,15.30
2023-04-20T20:48:16.387Z,12.13
2023-04-20T20:50:44.228Z,13.05
2023-04-20T20:53:11.672Z,13.00
2023-04-20T20:55:40.505Z,16.35
2023-04-20T20:58:07.960Z,13.68
2023-04-20T21:00:35.563Z,18.35
2023-04-20T21:03:04.002Z,14.10
2023-04-20T21:05:33.062Z,15.73
2023-04-20T21:08:01.816Z,7.22
2023-04-20T21:10:29.258Z,21.13
2023-04-20T21:12:58.041Z,17.52
2023-04-20T21:15:25.991Z,17.65
2023-04-20T21:17:53.523Z,14.75
2023-04-20T21:20:21.154Z,16.42
2023-04-20T21:22:48.611Z,13.88
2023-04-20T21:25:16.071Z,16.10
2023-04-20T21:27:43.515Z,12.00
2023-04-20T21:30:13.678Z,16.65
2023-04-20T21:32:41.130Z,19.25
2023-04-20T21:35:09.285Z,21.70
2023-04-20T21:37:36.736Z,22.25
2023-04-20T21:40:04.574Z,18.10
2023-04-20T21:42:32.046Z,18.27
2023-04-20T21:44:59.487Z,20.77
2023-04-20T21:47:28.733Z,17.88
2023-04-20T21:49:56.237Z,18.13
2023-04-20T21:52:23.890Z,19.80
2023-04-20T21:54:51.398Z,17.48
2023-04-20T21:57:18.986Z,19.10
2023-04-20T21:59:46.398Z,15.13
2023-04-20T22:02:13.943Z,17.15
2023-04-20T22:04:42.937Z,13.57
2023-04-20T22:07:10.722Z,16.95
2023-04-20T22:09:38.379Z,14.43
2023-04-20T22:12:06.510Z,15.15
2023-04-20T22:14:33.938Z,18.50
2023-04-20T22:17:01.768Z,18.60
2023-04-20T22:19:29.266Z,19.42
2023-04-20T22:21:58.025Z,22.10
2023-04-20T22:26:53.007Z,16.63
2023-04-20T22:29:20.519Z,24.48
2023-04-20T22:31:48.174Z,23.35
2023-04-20T22:34:15.824Z,20.83
2023-04-20T22:36:43.299Z,23.75
2023-04-20T22:39:12.194Z,23.05
2023-04-20T22:41:39.660Z,25.15
2023-04-20T22:44:07.084Z,18.85
2023-04-20T22:46:34.599Z,19.08
2023-04-20T22:49:02.119Z,16.02
2023-04-20T22:51:29.722Z,17.27
2023-04-20T22:53:57.455Z,16.27
2023-04-20T22:56:26.262Z,16.38
2023-04-20T22:58:53.716Z,15.50
2023-04-20T23:01:21.204Z,15.80
2023-04-20T23:03:48.893Z,12.77
2023-04-20T23:06:18.509Z,17.88
2023-04-20T23:08:46.799Z,17.70
2023-04-20T23:11:16.314Z,16.33
2023-04-20T23:13:47.708Z,20.67
2023-04-20T23:16:15.394Z,18.20
2023-04-20T23:18:42.876Z,19.23
2023-04-20T23:21:10.398Z,16.25
2023-04-20T23:23:37.870Z,15.07
2023-04-20T23:26:05.628Z,15.18
2023-04-20T23:28:33.087Z,19.73
2023-04-20T23:31:02.006Z,14.60
2023-04-20T23:33:29.530Z,12.35
2023-04-20T23:35:58.944Z,16.52
2023-04-20T23:38:26.566Z,13.73
2023-04-20T23:40:54.062Z,13.30
2023-04-20T23:43:21.533Z,16.52
2023-04-20T23:45:49.022Z,17.08
2023-04-20T23:48:17.887Z,17.17
2023-04-20T23:50:45.487Z,17.42
2023-04-20T23:53:12.973Z,16.58
2023-04-20T23:55:40.438Z,19.25
2023-04-20T23:58:07.899Z,18.98
